メインページ
METAR-TAF:

METAR-TAF

空港 :

トンガタプ島, トンガ

ファアモツ国際空港

緯度: 21-14S, 経度: 175-09W, 海抜: 38m

現時点の気象観測

当レポートは35分前の10:00(UTC)に作成
無風
気温 26°C
湿度 84%
気圧 1014 hPa
視程10km以上
高度1600ftの雲はほとんどない, 塔状積雲.

METAR: NFTF 231000Z 00000KT 9999 FEW016TCU 26/23 Q1014

時間: 23:35 (10:35 UTC)

予報

当レポートは5時間26分前の05:09(UTC)に作成
予報は23日の 06時(UTC)から 24日の 06時(UTC)まで有効
の風 7kt
視程10km以上
高度1700ftの雲は散在している
高度4500ftの雲は散在している
確率 30% :
23日の 16時(UTC)から 23日の 24時(UTC)まで一時的に
視程: 5000m
高度800ftの雲はほとんどない
高度1500ftの千切れ雲あり
にわか雨

TAF: NFTF 230509Z 2306/2406 10007KT 9999 SCT017 SCT045 PROB30 TEMPO 2316/2324 5000 SHRA FEW008 BKN015

4,000以上の空港の気象観測と天気予報(METAR報とTAF報)

利用可能な観測所は地図上に黄色い丸と赤い丸で示す。

丸の上にカーソルを重ねると観測所名を参照できる。

次にクリックすると気象観測と天気予報を参照できる。

マップの切り替え:黒色「×」印の緑ボタンをクリックして拡大、「-」印の緑ボタンをクリックして縮小、緑色の三角印をクリックして隣りの地図に切り替え


METAR-TAF: